sensor_id;sensor_type;location;lat;lon;timestamp;temperature;humidity
54168;DHT22;68429;50.958;3.592;2024-02-26T00:00:30;7.00;99.90
54168;DHT22;68429;50.958;3.592;2024-02-26T00:02:56;6.80;99.90
54168;DHT22;68429;50.958;3.592;2024-02-26T00:05:23;6.70;99.90
54168;DHT22;68429;50.958;3.592;2024-02-26T00:07:49;6.70;99.90
54168;DHT22;68429;50.958;3.592;2024-02-26T00:10:15;6.70;99.90
54168;DHT22;68429;50.958;3.592;2024-02-26T00:12:41;6.70;99.90
54168;DHT22;68429;50.958;3.592;2024-02-26T00:15:07;6.70;99.90
54168;DHT22;68429;50.958;3.592;2024-02-26T00:17:36;6.70;99.90
54168;DHT22;68429;50.958;3.592;2024-02-26T00:20:03;6.70;99.90
54168;DHT22;68429;50.958;3.592;2024-02-26T00:22:34;6.70;99.90
54168;DHT22;68429;50.958;3.592;2024-02-26T00:25:00;6.70;99.90
54168;DHT22;68429;50.958;3.592;2024-02-26T00:27:26;6.60;99.90
54168;DHT22;68429;50.958;3.592;2024-02-26T00:29:52;6.70;99.90
54168;DHT22;68429;50.958;3.592;2024-02-26T00:32:17;6.80;99.90
54168;DHT22;68429;50.958;3.592;2024-02-26T00:34:43;6.60;99.90
54168;DHT22;68429;50.958;3.592;2024-02-26T00:37:09;6.60;99.90
54168;DHT22;68429;50.958;3.592;2024-02-26T00:39:35;6.50;99.90
54168;DHT22;68429;50.958;3.592;2024-02-26T00:42:00;6.60;99.90
54168;DHT22;68429;50.958;3.592;2024-02-26T00:44:26;6.60;99.90
54168;DHT22;68429;50.958;3.592;2024-02-26T00:46:52;6.60;99.90
54168;DHT22;68429;50.958;3.592;2024-02-26T00:49:17;6.60;99.90
54168;DHT22;68429;50.958;3.592;2024-02-26T00:51:43;6.70;99.90
54168;DHT22;68429;50.958;3.592;2024-02-26T00:54:09;6.60;99.90
54168;DHT22;68429;50.958;3.592;2024-02-26T00:56:34;6.60;99.90
54168;DHT22;68429;50.958;3.592;2024-02-26T00:59:00;6.60;99.90
54168;DHT22;68429;50.958;3.592;2024-02-26T01:01:26;6.60;99.90
54168;DHT22;68429;50.958;3.592;2024-02-26T01:03:51;6.50;99.90
54168;DHT22;68429;50.958;3.592;2024-02-26T01:06:17;6.60;99.90
54168;DHT22;68429;50.958;3.592;2024-02-26T01:08:43;6.60;99.90
54168;DHT22;68429;50.958;3.592;2024-02-26T01:11:10;6.60;99.90
54168;DHT22;68429;50.958;3.592;2024-02-26T01:13:36;6.50;99.90
54168;DHT22;68429;50.958;3.592;2024-02-26T01:16:02;6.50;99.90
54168;DHT22;68429;50.958;3.592;2024-02-26T01:18:27;6.50;99.90
54168;DHT22;68429;50.958;3.592;2024-02-26T01:20:53;6.50;99.90
54168;DHT22;68429;50.958;3.592;2024-02-26T01:23:21;6.50;99.90
54168;DHT22;68429;50.958;3.592;2024-02-26T01:25:47;6.60;99.90
54168;DHT22;68429;50.958;3.592;2024-02-26T01:28:14;6.50;99.90
54168;DHT22;68429;50.958;3.592;2024-02-26T01:30:39;6.40;99.90
54168;DHT22;68429;50.958;3.592;2024-02-26T01:33:05;6.50;99.90
54168;DHT22;68429;50.958;3.592;2024-02-26T01:35:31;6.40;99.90
54168;DHT22;68429;50.958;3.592;2024-02-26T01:37:56;6.50;99.90
54168;DHT22;68429;50.958;3.592;2024-02-26T01:40:26;6.50;99.90
54168;DHT22;68429;50.958;3.592;2024-02-26T01:42:52;6.50;99.90
54168;DHT22;68429;50.958;3.592;2024-02-26T01:45:18;6.40;99.90
54168;DHT22;68429;50.958;3.592;2024-02-26T01:47:54;6.40;99.90
54168;DHT22;68429;50.958;3.592;2024-02-26T01:50:21;6.50;99.90
54168;DHT22;68429;50.958;3.592;2024-02-26T01:52:49;6.50;99.90
54168;DHT22;68429;50.958;3.592;2024-02-26T01:55:15;6.50;99.90
54168;DHT22;68429;50.958;3.592;2024-02-26T01:57:44;6.40;99.90
54168;DHT22;68429;50.958;3.592;2024-02-26T02:00:11;6.40;99.90
54168;DHT22;68429;50.958;3.592;2024-02-26T02:02:38;6.40;99.90
54168;DHT22;68429;50.958;3.592;2024-02-26T02:05:06;6.50;99.90
54168;DHT22;68429;50.958;3.592;2024-02-26T02:07:34;6.40;99.90
54168;DHT22;68429;50.958;3.592;2024-02-26T02:10:00;6.40;99.90
54168;DHT22;68429;50.958;3.592;2024-02-26T02:12:25;6.40;99.90
54168;DHT22;68429;50.958;3.592;2024-02-26T02:14:52;6.50;99.90
54168;DHT22;68429;50.958;3.592;2024-02-26T02:17:17;6.50;99.90
54168;DHT22;68429;50.958;3.592;2024-02-26T02:19:43;6.50;99.90
54168;DHT22;68429;50.958;3.592;2024-02-26T02:22:09;6.40;99.90
54168;DHT22;68429;50.958;3.592;2024-02-26T02:24:35;6.40;99.90
54168;DHT22;68429;50.958;3.592;2024-02-26T02:27:01;6.40;99.90
54168;DHT22;68429;50.958;3.592;2024-02-26T02:29:27;6.40;99.90
54168;DHT22;68429;50.958;3.592;2024-02-26T02:31:54;6.40;99.90
54168;DHT22;68429;50.958;3.592;2024-02-26T02:34:21;6.30;99.90
54168;DHT22;68429;50.958;3.592;2024-02-26T02:36:53;6.30;99.90
54168;DHT22;68429;50.958;3.592;2024-02-26T02:39:20;6.30;99.90
54168;DHT22;68429;50.958;3.592;2024-02-26T02:41:46;6.30;99.90
54168;DHT22;68429;50.958;3.592;2024-02-26T02:44:12;6.40;99.90
54168;DHT22;68429;50.958;3.592;2024-02-26T02:46:38;6.30;99.90
54168;DHT22;68429;50.958;3.592;2024-02-26T02:49:09;6.20;99.90
54168;DHT22;68429;50.958;3.592;2024-02-26T02:51:36;6.30;99.90
54168;DHT22;68429;50.958;3.592;2024-02-26T02:54:01;6.30;99.90
54168;DHT22;68429;50.958;3.592;2024-02-26T02:56:27;6.30;99.90
54168;DHT22;68429;50.958;3.592;2024-02-26T02:58:53;6.20;99.90
54168;DHT22;68429;50.958;3.592;2024-02-26T03:01:18;6.30;99.90
54168;DHT22;68429;50.958;3.592;2024-02-26T03:03:44;6.30;99.90
54168;DHT22;68429;50.958;3.592;2024-02-26T03:06:09;6.30;99.90
54168;DHT22;68429;50.958;3.592;2024-02-26T03:08:35;6.30;99.90
54168;DHT22;68429;50.958;3.592;2024-02-26T03:11:04;6.30;99.90
54168;DHT22;68429;50.958;3.592;2024-02-26T03:13:29;6.30;99.90
54168;DHT22;68429;50.958;3.592;2024-02-26T03:15:55;6.30;99.90
54168;DHT22;68429;50.958;3.592;2024-02-26T03:18:21;6.30;99.90
54168;DHT22;68429;50.958;3.592;2024-02-26T03:20:47;6.40;99.90
54168;DHT22;68429;50.958;3.592;2024-02-26T03:23:12;6.30;99.90
54168;DHT22;68429;50.958;3.592;2024-02-26T03:25:42;6.20;99.90
54168;DHT22;68429;50.958;3.592;2024-02-26T03:28:09;6.20;99.90
54168;DHT22;68429;50.958;3.592;2024-02-26T03:30:38;6.20;99.90
54168;DHT22;68429;50.958;3.592;2024-02-26T03:33:03;6.20;99.90
54168;DHT22;68429;50.958;3.592;2024-02-26T03:35:30;6.20;99.90
54168;DHT22;68429;50.958;3.592;2024-02-26T03:37:55;6.20;99.90
54168;DHT22;68429;50.958;3.592;2024-02-26T03:40:22;6.20;99.90
54168;DHT22;68429;50.958;3.592;2024-02-26T03:42:49;6.20;99.90
54168;DHT22;68429;50.958;3.592;2024-02-26T03:45:14;6.20;99.90
54168;DHT22;68429;50.958;3.592;2024-02-26T03:47:40;6.20;99.90
54168;DHT22;68429;50.958;3.592;2024-02-26T03:50:06;6.20;99.90
54168;DHT22;68429;50.958;3.592;2024-02-26T03:52:33;6.20;99.90
54168;DHT22;68429;50.958;3.592;2024-02-26T03:54:59;6.10;99.90
54168;DHT22;68429;50.958;3.592;2024-02-26T03:57:25;6.10;99.90
54168;DHT22;68429;50.958;3.592;2024-02-26T03:59:51;6.20;99.90
54168;DHT22;68429;50.958;3.592;2024-02-26T04:02:16;6.20;99.90
54168;DHT22;68429;50.958;3.592;2024-02-26T04:04:45;6.20;99.90
54168;DHT22;68429;50.958;3.592;2024-02-26T04:07:12;6.20;99.90
54168;DHT22;68429;50.958;3.592;2024-02-26T04:09:38;6.10;99.90
54168;DHT22;68429;50.958;3.592;2024-02-26T04:12:04;6.10;99.90
54168;DHT22;68429;50.958;3.592;2024-02-26T04:14:31;6.10;99.90
54168;DHT22;68429;50.958;3.592;2024-02-26T04:16:57;6.10;99.90
54168;DHT22;68429;50.958;3.592;2024-02-26T04:19:26;6.10;99.90
54168;DHT22;68429;50.958;3.592;2024-02-26T04:21:51;6.10;99.90
54168;DHT22;68429;50.958;3.592;2024-02-26T04:24:17;6.10;99.90
54168;DHT22;68429;50.958;3.592;2024-02-26T04:26:43;6.10;99.90
54168;DHT22;68429;50.958;3.592;2024-02-26T04:29:09;6.00;99.90
54168;DHT22;68429;50.958;3.592;2024-02-26T04:31:34;6.00;99.90
54168;DHT22;68429;50.958;3.592;2024-02-26T04:34:00;6.00;99.90
54168;DHT22;68429;50.958;3.592;2024-02-26T04:36:25;6.10;99.90
54168;DHT22;68429;50.958;3.592;2024-02-26T04:38:51;6.00;99.90
54168;DHT22;68429;50.958;3.592;2024-02-26T04:41:20;6.20;99.90
54168;DHT22;68429;50.958;3.592;2024-02-26T04:43:47;6.10;99.90
54168;DHT22;68429;50.958;3.592;2024-02-26T04:46:13;6.10;99.90
54168;DHT22;68429;50.958;3.592;2024-02-26T04:48:39;6.00;99.90
54168;DHT22;68429;50.958;3.592;2024-02-26T04:51:08;6.00;99.90
54168;DHT22;68429;50.958;3.592;2024-02-26T04:53:35;6.00;99.90
54168;DHT22;68429;50.958;3.592;2024-02-26T04:56:01;6.10;99.90
54168;DHT22;68429;50.958;3.592;2024-02-26T04:58:26;6.10;99.90
54168;DHT22;68429;50.958;3.592;2024-02-26T05:00:52;6.10;99.90
54168;DHT22;68429;50.958;3.592;2024-02-26T05:03:18;6.20;99.90
54168;DHT22;68429;50.958;3.592;2024-02-26T05:05:43;6.20;99.90
54168;DHT22;68429;50.958;3.592;2024-02-26T05:08:09;6.20;99.90
54168;DHT22;68429;50.958;3.592;2024-02-26T05:10:35;6.20;99.90
54168;DHT22;68429;50.958;3.592;2024-02-26T05:13:05;6.20;99.90
54168;DHT22;68429;50.958;3.592;2024-02-26T05:15:30;6.20;99.90
54168;DHT22;68429;50.958;3.592;2024-02-26T05:17:56;6.20;99.90
54168;DHT22;68429;50.958;3.592;2024-02-26T05:20:22;6.20;99.90
54168;DHT22;68429;50.958;3.592;2024-02-26T05:22:48;6.20;99.90
54168;DHT22;68429;50.958;3.592;2024-02-26T05:25:15;6.30;99.90
54168;DHT22;68429;50.958;3.592;2024-02-26T05:27:42;6.40;99.90
54168;DHT22;68429;50.958;3.592;2024-02-26T05:30:09;6.50;99.90
54168;DHT22;68429;50.958;3.592;2024-02-26T05:32:35;6.50;99.90
54168;DHT22;68429;50.958;3.592;2024-02-26T05:35:01;6.50;99.90
54168;DHT22;68429;50.958;3.592;2024-02-26T05:37:28;6.40;99.90
54168;DHT22;68429;50.958;3.592;2024-02-26T05:39:54;6.30;99.90
54168;DHT22;68429;50.958;3.592;2024-02-26T05:42:19;6.30;99.90
54168;DHT22;68429;50.958;3.592;2024-02-26T05:44:45;6.30;99.90
54168;DHT22;68429;50.958;3.592;2024-02-26T05:47:10;6.40;99.90
54168;DHT22;68429;50.958;3.592;2024-02-26T05:49:36;6.40;99.90
54168;DHT22;68429;50.958;3.592;2024-02-26T05:52:02;6.40;99.90
54168;DHT22;68429;50.958;3.592;2024-02-26T05:54:28;6.50;99.90
54168;DHT22;68429;50.958;3.592;2024-02-26T05:57:01;6.40;99.90
54168;DHT22;68429;50.958;3.592;2024-02-26T05:59:30;6.50;99.90
54168;DHT22;68429;50.958;3.592;2024-02-26T06:01:55;6.30;99.90
54168;DHT22;68429;50.958;3.592;2024-02-26T06:04:21;6.30;99.90
54168;DHT22;68429;50.958;3.592;2024-02-26T06:06:50;6.40;99.90
54168;DHT22;68429;50.958;3.592;2024-02-26T06:09:15;6.40;99.90
54168;DHT22;68429;50.958;3.592;2024-02-26T06:11:41;6.40;99.90
54168;DHT22;68429;50.958;3.592;2024-02-26T06:14:08;6.30;99.90
54168;DHT22;68429;50.958;3.592;2024-02-26T06:16:36;6.30;99.90
54168;DHT22;68429;50.958;3.592;2024-02-26T06:19:03;6.20;99.90
54168;DHT22;68429;50.958;3.592;2024-02-26T06:21:32;6.20;99.90
54168;DHT22;68429;50.958;3.592;2024-02-26T06:24:17;6.30;99.90
54168;DHT22;68429;50.958;3.592;2024-02-26T06:26:42;6.20;99.90
54168;DHT22;68429;50.958;3.592;2024-02-26T06:29:08;6.20;99.90
54168;DHT22;68429;50.958;3.592;2024-02-26T06:31:34;6.30;99.90
54168;DHT22;68429;50.958;3.592;2024-02-26T06:33:59;6.20;99.90
54168;DHT22;68429;50.958;3.592;2024-02-26T06:36:25;6.10;99.90
54168;DHT22;68429;50.958;3.592;2024-02-26T06:38:51;6.10;99.90
54168;DHT22;68429;50.958;3.592;2024-02-26T06:41:19;6.10;99.90
54168;DHT22;68429;50.958;3.592;2024-02-26T06:43:45;6.10;99.90
54168;DHT22;68429;50.958;3.592;2024-02-26T06:46:10;6.20;99.90
54168;DHT22;68429;50.958;3.592;2024-02-26T06:48:36;6.20;99.90
54168;DHT22;68429;50.958;3.592;2024-02-26T06:51:02;6.20;99.90
54168;DHT22;68429;50.958;3.592;2024-02-26T06:53:28;6.20;99.90
54168;DHT22;68429;50.958;3.592;2024-02-26T06:55:54;6.00;99.90
54168;DHT22;68429;50.958;3.592;2024-02-26T06:58:19;6.20;99.90
54168;DHT22;68429;50.958;3.592;2024-02-26T07:00:45;6.20;99.90
54168;DHT22;68429;50.958;3.592;2024-02-26T07:03:11;6.20;99.90
54168;DHT22;68429;50.958;3.592;2024-02-26T07:05:39;6.10;99.90
54168;DHT22;68429;50.958;3.592;2024-02-26T07:08:05;6.20;99.90
54168;DHT22;68429;50.958;3.592;2024-02-26T07:10:31;6.20;99.90
54168;DHT22;68429;50.958;3.592;2024-02-26T07:12:56;6.10;99.90
54168;DHT22;68429;50.958;3.592;2024-02-26T07:15:22;6.10;99.90
54168;DHT22;68429;50.958;3.592;2024-02-26T07:17:47;6.20;99.90
54168;DHT22;68429;50.958;3.592;2024-02-26T07:20:14;6.10;99.90
54168;DHT22;68429;50.958;3.592;2024-02-26T07:22:40;6.10;99.90
54168;DHT22;68429;50.958;3.592;2024-02-26T07:25:09;6.20;99.90
54168;DHT22;68429;50.958;3.592;2024-02-26T07:27:39;6.00;99.90
54168;DHT22;68429;50.958;3.592;2024-02-26T07:30:06;6.10;99.90
54168;DHT22;68429;50.958;3.592;2024-02-26T07:32:32;6.00;99.90
54168;DHT22;68429;50.958;3.592;2024-02-26T07:34:57;6.00;99.90
54168;DHT22;68429;50.958;3.592;2024-02-26T07:37:23;6.10;99.90
54168;DHT22;68429;50.958;3.592;2024-02-26T07:39:48;6.20;99.90
54168;DHT22;68429;50.958;3.592;2024-02-26T07:42:14;6.20;99.90
54168;DHT22;68429;50.958;3.592;2024-02-26T07:44:40;6.20;99.90
54168;DHT22;68429;50.958;3.592;2024-02-26T07:47:09;6.00;99.90
54168;DHT22;68429;50.958;3.592;2024-02-26T07:49:34;6.00;99.90
54168;DHT22;68429;50.958;3.592;2024-02-26T07:52:00;6.00;99.90
54168;DHT22;68429;50.958;3.592;2024-02-26T07:54:25;6.00;99.90
54168;DHT22;68429;50.958;3.592;2024-02-26T07:56:51;6.10;99.90
54168;DHT22;68429;50.958;3.592;2024-02-26T07:59:17;6.10;99.90
54168;DHT22;68429;50.958;3.592;2024-02-26T08:01:42;6.20;99.90
54168;DHT22;68429;50.958;3.592;2024-02-26T08:04:08;6.20;99.90
54168;DHT22;68429;50.958;3.592;2024-02-26T08:06:34;6.10;99.90
54168;DHT22;68429;50.958;3.592;2024-02-26T08:09:00;6.10;99.90
54168;DHT22;68429;50.958;3.592;2024-02-26T08:11:25;6.10;99.90
54168;DHT22;68429;50.958;3.592;2024-02-26T08:13:51;6.10;99.90
54168;DHT22;68429;50.958;3.592;2024-02-26T08:16:17;6.10;99.90
54168;DHT22;68429;50.958;3.592;2024-02-26T08:18:42;6.00;99.90
54168;DHT22;68429;50.958;3.592;2024-02-26T08:21:08;6.00;99.90
54168;DHT22;68429;50.958;3.592;2024-02-26T08:23:34;6.00;99.90
54168;DHT22;68429;50.958;3.592;2024-02-26T08:25:59;6.10;99.90
54168;DHT22;68429;50.958;3.592;2024-02-26T08:28:25;6.10;99.90
54168;DHT22;68429;50.958;3.592;2024-02-26T08:30:51;6.00;99.90
54168;DHT22;68429;50.958;3.592;2024-02-26T08:33:16;6.00;99.90
54168;DHT22;68429;50.958;3.592;2024-02-26T08:35:42;6.00;99.90
54168;DHT22;68429;50.958;3.592;2024-02-26T08:38:07;6.10;99.90
54168;DHT22;68429;50.958;3.592;2024-02-26T08:40:33;6.10;99.90
54168;DHT22;68429;50.958;3.592;2024-02-26T08:42:59;6.00;99.90
54168;DHT22;68429;50.958;3.592;2024-02-26T08:45:24;6.10;99.90
54168;DHT22;68429;50.958;3.592;2024-02-26T08:47:52;6.10;99.90
54168;DHT22;68429;50.958;3.592;2024-02-26T08:50:18;6.10;99.90
54168;DHT22;68429;50.958;3.592;2024-02-26T08:52:44;6.20;99.90
54168;DHT22;68429;50.958;3.592;2024-02-26T08:55:14;6.10;99.90
54168;DHT22;68429;50.958;3.592;2024-02-26T08:57:39;6.30;99.90
54168;DHT22;68429;50.958;3.592;2024-02-26T09:00:06;6.20;99.90
54168;DHT22;68429;50.958;3.592;2024-02-26T09:02:32;6.20;99.90
54168;DHT22;68429;50.958;3.592;2024-02-26T09:04:58;6.00;99.90
54168;DHT22;68429;50.958;3.592;2024-02-26T09:07:23;6.10;99.90
54168;DHT22;68429;50.958;3.592;2024-02-26T09:09:49;6.10;99.90
54168;DHT22;68429;50.958;3.592;2024-02-26T09:12:15;6.20;99.90
54168;DHT22;68429;50.958;3.592;2024-02-26T09:14:40;6.20;99.90
54168;DHT22;68429;50.958;3.592;2024-02-26T09:17:06;6.20;99.90
54168;DHT22;68429;50.958;3.592;2024-02-26T09:19:33;6.20;99.90
54168;DHT22;68429;50.958;3.592;2024-02-26T09:21:58;6.10;99.90
54168;DHT22;68429;50.958;3.592;2024-02-26T09:24:25;6.00;99.90
54168;DHT22;68429;50.958;3.592;2024-02-26T09:26:51;6.00;99.90
54168;DHT22;68429;50.958;3.592;2024-02-26T09:29:17;6.00;99.90
54168;DHT22;68429;50.958;3.592;2024-02-26T09:31:43;6.00;99.90
54168;DHT22;68429;50.958;3.592;2024-02-26T09:34:12;6.10;99.90
54168;DHT22;68429;50.958;3.592;2024-02-26T09:36:38;5.90;99.90
54168;DHT22;68429;50.958;3.592;2024-02-26T09:39:03;5.90;99.90
54168;DHT22;68429;50.958;3.592;2024-02-26T09:41:30;6.00;99.90
54168;DHT22;68429;50.958;3.592;2024-02-26T09:43:57;5.90;99.90
54168;DHT22;68429;50.958;3.592;2024-02-26T09:46:27;6.00;99.90
54168;DHT22;68429;50.958;3.592;2024-02-26T09:48:53;6.00;99.90
54168;DHT22;68429;50.958;3.592;2024-02-26T09:51:19;6.00;99.90
54168;DHT22;68429;50.958;3.592;2024-02-26T09:53:51;5.80;99.90
54168;DHT22;68429;50.958;3.592;2024-02-26T09:56:17;5.90;99.90
54168;DHT22;68429;50.958;3.592;2024-02-26T09:58:43;6.00;99.90
54168;DHT22;68429;50.958;3.592;2024-02-26T10:01:18;6.00;99.90
54168;DHT22;68429;50.958;3.592;2024-02-26T10:03:50;5.90;99.90
54168;DHT22;68429;50.958;3.592;2024-02-26T10:06:17;5.90;99.90
54168;DHT22;68429;50.958;3.592;2024-02-26T10:08:43;6.10;99.90
54168;DHT22;68429;50.958;3.592;2024-02-26T10:11:10;5.90;99.90
54168;DHT22;68429;50.958;3.592;2024-02-26T10:13:36;5.90;99.90
54168;DHT22;68429;50.958;3.592;2024-02-26T10:16:02;6.00;99.90
54168;DHT22;68429;50.958;3.592;2024-02-26T10:18:52;5.90;99.90
54168;DHT22;68429;50.958;3.592;2024-02-26T10:21:20;5.90;99.90
54168;DHT22;68429;50.958;3.592;2024-02-26T10:23:46;5.90;99.90
54168;DHT22;68429;50.958;3.592;2024-02-26T10:26:16;5.90;99.90
54168;DHT22;68429;50.958;3.592;2024-02-26T10:28:43;5.90;99.90
54168;DHT22;68429;50.958;3.592;2024-02-26T10:31:10;5.90;99.90
54168;DHT22;68429;50.958;3.592;2024-02-26T10:33:37;5.90;99.90
54168;DHT22;68429;50.958;3.592;2024-02-26T10:36:07;5.80;99.90
54168;DHT22;68429;50.958;3.592;2024-02-26T10:38:36;5.90;99.90
54168;DHT22;68429;50.958;3.592;2024-02-26T10:41:03;5.90;99.90
54168;DHT22;68429;50.958;3.592;2024-02-26T10:43:29;5.90;99.90
54168;DHT22;68429;50.958;3.592;2024-02-26T10:45:55;6.00;99.90
54168;DHT22;68429;50.958;3.592;2024-02-26T10:48:21;6.00;99.90
54168;DHT22;68429;50.958;3.592;2024-02-26T10:50:47;6.10;99.90
54168;DHT22;68429;50.958;3.592;2024-02-26T10:53:21;6.00;99.90
54168;DHT22;68429;50.958;3.592;2024-02-26T10:56:08;6.10;99.90
54168;DHT22;68429;50.958;3.592;2024-02-26T10:58:35;6.10;99.90
54168;DHT22;68429;50.958;3.592;2024-02-26T11:01:01;6.10;99.90
54168;DHT22;68429;50.958;3.592;2024-02-26T11:03:29;6.00;99.90
54168;DHT22;68429;50.958;3.592;2024-02-26T11:05:57;6.00;99.90
54168;DHT22;68429;50.958;3.592;2024-02-26T11:08:24;6.00;99.90
54168;DHT22;68429;50.958;3.592;2024-02-26T11:10:53;6.00;99.90
54168;DHT22;68429;50.958;3.592;2024-02-26T11:13:19;6.10;99.90
54168;DHT22;68429;50.958;3.592;2024-02-26T11:15:47;6.00;99.90
54168;DHT22;68429;50.958;3.592;2024-02-26T11:18:16;6.00;99.90
54168;DHT22;68429;50.958;3.592;2024-02-26T11:20:44;6.10;99.90
54168;DHT22;68429;50.958;3.592;2024-02-26T11:23:11;6.10;99.90
54168;DHT22;68429;50.958;3.592;2024-02-26T11:25:37;6.20;99.90
54168;DHT22;68429;50.958;3.592;2024-02-26T11:28:10;6.20;99.90
54168;DHT22;68429;50.958;3.592;2024-02-26T11:30:41;6.20;99.90
54168;DHT22;68429;50.958;3.592;2024-02-26T11:33:08;6.20;99.90
54168;DHT22;68429;50.958;3.592;2024-02-26T11:35:36;6.20;99.90
54168;DHT22;68429;50.958;3.592;2024-02-26T11:38:02;6.10;99.90
54168;DHT22;68429;50.958;3.592;2024-02-26T11:40:29;6.20;99.90
54168;DHT22;68429;50.958;3.592;2024-02-26T11:42:56;6.10;99.90
54168;DHT22;68429;50.958;3.592;2024-02-26T11:48:22;6.20;99.90
54168;DHT22;68429;50.958;3.592;2024-02-26T11:50:55;6.20;99.90
54168;DHT22;68429;50.958;3.592;2024-02-26T11:53:28;6.10;99.90
54168;DHT22;68429;50.958;3.592;2024-02-26T11:59:00;6.10;99.90
54168;DHT22;68429;50.958;3.592;2024-02-26T12:01:39;6.10;99.90
54168;DHT22;68429;50.958;3.592;2024-02-26T12:04:26;6.10;99.90
54168;DHT22;68429;50.958;3.592;2024-02-26T12:06:52;6.20;99.90
54168;DHT22;68429;50.958;3.592;2024-02-26T12:09:32;6.20;99.90
54168;DHT22;68429;50.958;3.592;2024-02-26T12:11:58;6.30;99.90
54168;DHT22;68429;50.958;3.592;2024-02-26T12:14:27;6.10;99.90
54168;DHT22;68429;50.958;3.592;2024-02-26T12:16:53;6.20;99.90
54168;DHT22;68429;50.958;3.592;2024-02-26T12:19:21;6.20;99.90
54168;DHT22;68429;50.958;3.592;2024-02-26T12:21:52;6.30;99.90
54168;DHT22;68429;50.958;3.592;2024-02-26T12:24:18;6.30;99.90
54168;DHT22;68429;50.958;3.592;2024-02-26T12:26:45;6.20;99.90
54168;DHT22;68429;50.958;3.592;2024-02-26T12:29:11;6.30;99.90
54168;DHT22;68429;50.958;3.592;2024-02-26T12:31:37;6.30;99.90
54168;DHT22;68429;50.958;3.592;2024-02-26T12:34:05;6.30;99.90
54168;DHT22;68429;50.958;3.592;2024-02-26T12:36:32;6.20;99.90
54168;DHT22;68429;50.958;3.592;2024-02-26T12:39:03;6.20;99.90
54168;DHT22;68429;50.958;3.592;2024-02-26T12:41:31;6.20;99.90
54168;DHT22;68429;50.958;3.592;2024-02-26T12:43:57;6.30;99.90
54168;DHT22;68429;50.958;3.592;2024-02-26T12:46:27;6.30;99.90
54168;DHT22;68429;50.958;3.592;2024-02-26T12:48:55;6.20;99.90
54168;DHT22;68429;50.958;3.592;2024-02-26T12:51:23;6.20;99.90
54168;DHT22;68429;50.958;3.592;2024-02-26T12:53:49;6.20;99.90
54168;DHT22;68429;50.958;3.592;2024-02-26T12:56:17;6.10;99.90
54168;DHT22;68429;50.958;3.592;2024-02-26T12:58:44;6.10;99.90
54168;DHT22;68429;50.958;3.592;2024-02-26T13:01:15;6.20;99.90
54168;DHT22;68429;50.958;3.592;2024-02-26T13:03:42;6.30;99.90
54168;DHT22;68429;50.958;3.592;2024-02-26T13:06:09;6.40;99.90
54168;DHT22;68429;50.958;3.592;2024-02-26T13:08:34;6.30;99.90
54168;DHT22;68429;50.958;3.592;2024-02-26T13:11:00;6.30;99.90
54168;DHT22;68429;50.958;3.592;2024-02-26T13:13:26;6.40;99.90
54168;DHT22;68429;50.958;3.592;2024-02-26T13:16:06;6.50;99.90
54168;DHT22;68429;50.958;3.592;2024-02-26T13:18:34;6.40;99.90
54168;DHT22;68429;50.958;3.592;2024-02-26T13:23:35;6.40;99.90
54168;DHT22;68429;50.958;3.592;2024-02-26T13:26:01;6.50;99.90
54168;DHT22;68429;50.958;3.592;2024-02-26T13:28:27;6.40;99.90
54168;DHT22;68429;50.958;3.592;2024-02-26T13:30:57;6.50;99.90
54168;DHT22;68429;50.958;3.592;2024-02-26T13:33:25;6.60;99.90
54168;DHT22;68429;50.958;3.592;2024-02-26T13:35:51;6.60;99.90
54168;DHT22;68429;50.958;3.592;2024-02-26T13:38:17;6.50;99.90
54168;DHT22;68429;50.958;3.592;2024-02-26T13:40:43;6.50;99.90
54168;DHT22;68429;50.958;3.592;2024-02-26T13:43:08;6.40;99.90
54168;DHT22;68429;50.958;3.592;2024-02-26T13:45:35;6.40;99.90
54168;DHT22;68429;50.958;3.592;2024-02-26T13:48:11;6.60;99.90
54168;DHT22;68429;50.958;3.592;2024-02-26T13:50:37;6.70;99.90
54168;DHT22;68429;50.958;3.592;2024-02-26T13:53:03;6.60;99.90
54168;DHT22;68429;50.958;3.592;2024-02-26T13:55:30;6.60;99.90
54168;DHT22;68429;50.958;3.592;2024-02-26T13:57:58;6.50;99.90
54168;DHT22;68429;50.958;3.592;2024-02-26T14:00:24;6.50;99.90
54168;DHT22;68429;50.958;3.592;2024-02-26T14:02:50;6.50;99.90
54168;DHT22;68429;50.958;3.592;2024-02-26T14:05:16;6.60;99.90
54168;DHT22;68429;50.958;3.592;2024-02-26T14:07:42;6.60;99.90
54168;DHT22;68429;50.958;3.592;2024-02-26T14:10:09;6.60;99.90
54168;DHT22;68429;50.958;3.592;2024-02-26T14:12:37;6.40;99.90
54168;DHT22;68429;50.958;3.592;2024-02-26T14:15:03;6.30;99.90
54168;DHT22;68429;50.958;3.592;2024-02-26T14:17:30;6.40;99.90
54168;DHT22;68429;50.958;3.592;2024-02-26T14:19:56;6.40;99.90
54168;DHT22;68429;50.958;3.592;2024-02-26T14:22:22;6.50;99.90
54168;DHT22;68429;50.958;3.592;2024-02-26T14:24:47;6.30;99.90
54168;DHT22;68429;50.958;3.592;2024-02-26T14:27:13;6.30;99.90
54168;DHT22;68429;50.958;3.592;2024-02-26T14:29:45;6.40;99.90
54168;DHT22;68429;50.958;3.592;2024-02-26T14:32:11;6.50;99.90
54168;DHT22;68429;50.958;3.592;2024-02-26T14:34:37;6.30;99.90
54168;DHT22;68429;50.958;3.592;2024-02-26T14:37:03;6.30;99.90
54168;DHT22;68429;50.958;3.592;2024-02-26T14:39:29;6.40;99.90
54168;DHT22;68429;50.958;3.592;2024-02-26T14:41:56;6.40;99.90
54168;DHT22;68429;50.958;3.592;2024-02-26T14:44:23;6.50;99.90
54168;DHT22;68429;50.958;3.592;2024-02-26T14:46:49;6.60;99.90
54168;DHT22;68429;50.958;3.592;2024-02-26T14:49:15;6.50;99.90
54168;DHT22;68429;50.958;3.592;2024-02-26T14:51:41;6.50;99.90
54168;DHT22;68429;50.958;3.592;2024-02-26T14:54:06;6.50;99.90
54168;DHT22;68429;50.958;3.592;2024-02-26T14:56:32;6.40;99.90
54168;DHT22;68429;50.958;3.592;2024-02-26T14:58:58;6.30;99.90
54168;DHT22;68429;50.958;3.592;2024-02-26T15:01:24;6.50;99.90
54168;DHT22;68429;50.958;3.592;2024-02-26T15:03:49;6.60;99.90
54168;DHT22;68429;50.958;3.592;2024-02-26T15:06:15;6.50;99.90
54168;DHT22;68429;50.958;3.592;2024-02-26T15:08:41;6.50;99.90
54168;DHT22;68429;50.958;3.592;2024-02-26T15:11:06;6.50;99.90
54168;DHT22;68429;50.958;3.592;2024-02-26T15:13:33;6.50;99.90
54168;DHT22;68429;50.958;3.592;2024-02-26T15:15:59;6.40;99.90
54168;DHT22;68429;50.958;3.592;2024-02-26T15:18:24;6.40;99.90
54168;DHT22;68429;50.958;3.592;2024-02-26T15:20:51;6.40;99.90
54168;DHT22;68429;50.958;3.592;2024-02-26T15:23:16;6.40;99.90
54168;DHT22;68429;50.958;3.592;2024-02-26T15:25:43;6.50;99.90
54168;DHT22;68429;50.958;3.592;2024-02-26T15:28:08;6.40;99.90
54168;DHT22;68429;50.958;3.592;2024-02-26T15:30:36;6.30;99.90
54168;DHT22;68429;50.958;3.592;2024-02-26T15:33:02;6.30;99.90
54168;DHT22;68429;50.958;3.592;2024-02-26T15:35:28;6.30;99.90
54168;DHT22;68429;50.958;3.592;2024-02-26T15:37:54;6.30;99.90
54168;DHT22;68429;50.958;3.592;2024-02-26T15:40:19;6.30;99.90
54168;DHT22;68429;50.958;3.592;2024-02-26T15:42:46;6.30;99.90
54168;DHT22;68429;50.958;3.592;2024-02-26T15:45:11;6.40;99.90
54168;DHT22;68429;50.958;3.592;2024-02-26T15:47:37;6.40;99.90
54168;DHT22;68429;50.958;3.592;2024-02-26T15:50:04;6.40;99.90